Heinz Schepers — V2OM7 — position and weather

sailwx.info

Track history (hours):
 
Tides and Currents Weather Stations Pressure Air Temp Water Temp Dewpoint Dewpoint Depression Visibility Wind Speed Wind Dir Waves Ship Positions

Heinz Schepers

Last reported at 2015-Mar-28 00:04 UTC. Time now 2015-Mar-28 01:50 UTC.
Position N 34°36' E 032°08'.

Length 101 m; draft 5.1 m.

Type: Cargo ship. MMSI: 304596000.

Date/timePositionNaut miles runAvg speedWind from/ knotsBaromVisibWave heightAir tempDewpointWater temp
2015-Mar-28 00:04N 34°36' E 032°08'612.8
2015-Mar-27 23:33N 34°35' E 032°16'1313.5
2015-Mar-27 22:33N 34°33' E 032°33'1414.1
2015-Mar-27 21:33N 34°32' E 032°50'1211.9
2015-Mar-27 20:33N 34°35' E 033°04'5 4.6
2015-Mar-27 19:32N 34°39' E 033°01'0 0.0
2015-Mar-27 18:32N 34°39' E 033°01'0 0.0
2015-Mar-27 17:32N 34°39' E 033°01'0 0.0
2015-Mar-27 16:32N 34°39' E 033°01'0 0.0
2015-Mar-27 15:32N 34°39' E 033°01'0 0.0
2015-Mar-27 14:32N 34°39' E 033°01'0 0.0
2015-Mar-27 13:32N 34°39' E 033°01'0 0.0
2015-Mar-27 12:32N 34°39' E 033°01'0 0.0
2015-Mar-27 11:32N 34°39' E 033°01'0 0.0
2015-Mar-27 10:32N 34°39' E 033°01'0 0.0
2015-Mar-27 09:32N 34°39' E 033°01'0 0.0
2015-Mar-27 08:32N 34°39' E 033°01'0 0.0
2015-Mar-27 07:32N 34°39' E 033°01'0 0.0
2015-Mar-27 06:32N 34°39' E 033°01'0 0.0
2015-Mar-27 05:32N 34°39' E 033°01'0 0.0
2015-Mar-27 04:32N 34°39' E 033°01'0 0.0
2015-Mar-27 03:32N 34°39' E 033°01'0 0.0
2015-Mar-27 02:32N 34°39' E 033°01'0 0.0
2015-Mar-27 01:29N 34°39' E 033°01'0 0.0
2015-Mar-27 00:32N 34°39' E 033°01'0 0.0
2015-Mar-26 23:32N 34°39' E 033°01'0 0.0
2015-Mar-26 22:32N 34°39' E 033°01'0 0.0
2015-Mar-26 21:32N 34°39' E 033°01'0 0.0
2015-Mar-26 20:31N 34°39' E 033°01'0 0.0
2015-Mar-26 19:31N 34°39' E 033°01'0 0.0
2015-Mar-26 18:31N 34°39' E 033°01'0 0.0
2015-Mar-26 17:31N 34°39' E 033°01'0 0.0
2015-Mar-26 16:31N 34°39' E 033°01'0 0.0
2015-Mar-26 15:31N 34°39' E 033°01'0 0.0
2015-Mar-26 14:31N 34°39' E 033°01'0 0.0
2015-Mar-26 13:31N 34°39' E 033°01'0 0.0
2015-Mar-26 12:31N 34°39' E 033°01'0 0.0
2015-Mar-26 11:31N 34°39' E 033°01'0 0.0
2015-Mar-26 10:31N 34°39' E 033°01'0 0.0
2015-Mar-26 09:31N 34°39' E 033°01'0 0.0
2015-Mar-26 08:31N 34°39' E 033°01'0 0.0
2015-Mar-26 07:31N 34°39' E 033°01'0 0.0
2015-Mar-26 06:31N 34°39' E 033°01'0 0.0
2015-Mar-26 05:31N 34°39' E 033°01'0 0.0
2015-Mar-26 04:31N 34°39' E 033°01'0 0.0
2015-Mar-26 03:31N 34°39' E 033°01'0 0.0
2015-Mar-26 02:31N 34°39' E 033°01'0 0.0
2015-Mar-26 01:31N 34°39' E 033°01'0 0.0
2015-Mar-26 00:31N 34°39' E 033°01'0 0.0
2015-Mar-25 23:31N 34°39' E 033°01'0 0.0
2015-Mar-25 22:31N 34°39' E 033°01'0 0.0
2015-Mar-25 21:31N 34°39' E 033°01'0 0.0
2015-Mar-25 20:31N 34°39' E 033°01'0 0.0
2015-Mar-25 19:31N 34°39' E 033°01'0 0.0
2015-Mar-25 18:31N 34°39' E 033°01'0 0.0
2015-Mar-25 17:31N 34°39' E 033°01'0 0.3
2015-Mar-25 16:33N 34°39' E 033°01'7 7.4
2015-Mar-25 15:33N 34°32' E 032°60'1312.9
2015-Mar-25 14:33N 34°34' E 032°45'1313.1
2015-Mar-25 13:33N 34°38' E 032°29'  
2015-Mar-20 22:10N 34°40' E 032°24'610.4
2015-Mar-20 21:33N 34°38' E 032°31'1110.7
2015-Mar-20 20:34N 34°35' E 032°43'1111.4
2015-Mar-20 19:33N 34°32' E 032°56'9 9.0
2015-Mar-20 18:34N 34°39' E 033°02'1 1.2
2015-Mar-20 17:34N 34°39' E 033°01'0 0.0
2015-Mar-20 16:34N 34°39' E 033°01'0 0.0
2015-Mar-20 15:34N 34°39' E 033°01'0 0.0
2015-Mar-20 14:34N 34°39' E 033°01'0 0.0
2015-Mar-20 13:34N 34°39' E 033°01'0 0.0
2015-Mar-20 12:34N 34°39' E 033°01'0 0.0
2015-Mar-20 11:34N 34°39' E 033°01'0 0.0
2015-Mar-20 10:33N 34°39' E 033°01'0 0.0
2015-Mar-20 09:34N 34°39' E 033°01'0 0.0
2015-Mar-20 08:34N 34°39' E 033°01'0 0.0
2015-Mar-20 07:34N 34°39' E 033°01'0 0.0
2015-Mar-20 06:34N 34°39' E 033°01'0 0.0
2015-Mar-20 05:33N 34°39' E 033°01'0 0.0
2015-Mar-20 04:34N 34°39' E 033°01'0 0.0
2015-Mar-20 03:33N 34°39' E 033°01'0 0.0
2015-Mar-20 02:34N 34°39' E 033°01'0 0.0
2015-Mar-20 01:34N 34°39' E 033°01'0 0.0
2015-Mar-20 00:33N 34°39' E 033°01'0 0.0
2015-Mar-19 23:33N 34°39' E 033°01'0 0.0
2015-Mar-19 22:33N 34°39' E 033°01'0 0.0
2015-Mar-19 21:34N 34°39' E 033°01'0 0.0
2015-Mar-19 20:34N 34°39' E 033°01'0 0.0
2015-Mar-19 19:34N 34°39' E 033°01'0 0.0
2015-Mar-19 18:34N 34°39' E 033°01'0 0.0
2015-Mar-19 17:34N 34°39' E 033°01'0 0.0
2015-Mar-19 16:33N 34°39' E 033°01'0 0.0
2015-Mar-19 15:34N 34°39' E 033°01'0 0.0
2015-Mar-19 14:34N 34°39' E 033°01'0 0.0
2015-Mar-19 13:34N 34°39' E 033°01'0 0.0
2015-Mar-19 12:34N 34°39' E 033°01'0 0.0
2015-Mar-19 11:34N 34°39' E 033°01'0 0.0
2015-Mar-19 10:34N 34°39' E 033°01'0 0.0
2015-Mar-19 09:33N 34°39' E 033°01'0 0.0
2015-Mar-19 08:34N 34°39' E 033°01'0 0.0
2015-Mar-19 07:34N 34°39' E 033°01'0 0.0
2015-Mar-19 06:34N 34°39' E 033°01'0 0.0
2015-Mar-19 05:34N 34°39' E 033°01'0 0.0
2015-Mar-19 04:34N 34°39' E 033°01'0 0.0
2015-Mar-19 03:33N 34°39' E 033°01'0 0.0
2015-Mar-19 02:34N 34°39' E 033°01'0 0.0
2015-Mar-19 01:33N 34°39' E 033°01'0 0.0
2015-Mar-19 00:34N 34°39' E 033°01'0 0.0
2015-Mar-18 23:34N 34°39' E 033°01'0 0.0
2015-Mar-18 22:33N 34°39' E 033°01'0 0.0
2015-Mar-18 21:34N 34°39' E 033°01'0 0.0
2015-Mar-18 20:33N 34°39' E 033°01'0 0.0
2015-Mar-18 19:34N 34°39' E 033°01'0 0.0
2015-Mar-18 18:34N 34°39' E 033°01'0 0.0
2015-Mar-18 17:34N 34°39' E 033°01'0 0.0
2015-Mar-18 16:34N 34°39' E 033°01'0 0.0
2015-Mar-18 15:34N 34°39' E 033°01'0 0.0
2015-Mar-18 14:34N 34°39' E 033°01'0 0.0
2015-Mar-18 13:34N 34°39' E 033°01'0 0.0
2015-Mar-18 12:34N 34°39' E 033°01'0 0.0
2015-Mar-18 11:33N 34°39' E 033°01'0 0.0
2015-Mar-18 10:33N 34°39' E 033°01'0 0.0
2015-Mar-18 09:33N 34°39' E 033°01'0 0.0
2015-Mar-18 08:34N 34°39' E 033°01'0 0.0
2015-Mar-18 07:34N 34°39' E 033°01'0 0.0
2015-Mar-18 06:34N 34°39' E 033°01'0 0.0
2015-Mar-18 05:34N 34°39' E 033°01'0 0.0
2015-Mar-18 04:34N 34°39' E 033°01'0 0.0
2015-Mar-18 03:34N 34°39' E 033°01'0 0.0
2015-Mar-18 02:34N 34°39' E 033°01'0 0.0
2015-Mar-18 01:33N 34°39' E 033°01'0 0.0
2015-Mar-18 00:34N 34°39' E 033°01'  
Track history (hours):
 
Tides and Currents Weather Stations Pressure Air Temp Water Temp Dewpoint Dewpoint Depression Visibility Wind Speed Wind Dir Waves Ship Positions

Heinz Schepers

Last reported at 2015-Mar-28 00:04 UTC. Time now 2015-Mar-28 01:50 UTC.
Position N 34°36' E 032°08'.

Length 101 m; draft 5.1 m.

Type: Cargo ship. MMSI: 304596000.

Date/timePositionNaut miles runAvg speedWind from/ knotsBaromVisibWave heightAir tempDewpointWater temp
2015-Mar-28 00:04N 34°36' E 032°08'612.8
2015-Mar-27 23:33N 34°35' E 032°16'1313.5
2015-Mar-27 22:33N 34°33' E 032°33'1414.1
2015-Mar-27 21:33N 34°32' E 032°50'1211.9
2015-Mar-27 20:33N 34°35' E 033°04'5 4.6
2015-Mar-27 19:32N 34°39' E 033°01'0 0.0
2015-Mar-27 18:32N 34°39' E 033°01'0 0.0
2015-Mar-27 17:32N 34°39' E 033°01'0 0.0
2015-Mar-27 16:32N 34°39' E 033°01'0 0.0
2015-Mar-27 15:32N 34°39' E 033°01'0 0.0
2015-Mar-27 14:32N 34°39' E 033°01'0 0.0
2015-Mar-27 13:32N 34°39' E 033°01'0 0.0
2015-Mar-27 12:32N 34°39' E 033°01'0 0.0
2015-Mar-27 11:32N 34°39' E 033°01'0 0.0
2015-Mar-27 10:32N 34°39' E 033°01'0 0.0
2015-Mar-27 09:32N 34°39' E 033°01'0 0.0
2015-Mar-27 08:32N 34°39' E 033°01'0 0.0
2015-Mar-27 07:32N 34°39' E 033°01'0 0.0
2015-Mar-27 06:32N 34°39' E 033°01'0 0.0
2015-Mar-27 05:32N 34°39' E 033°01'0 0.0
2015-Mar-27 04:32N 34°39' E 033°01'0 0.0
2015-Mar-27 03:32N 34°39' E 033°01'0 0.0
2015-Mar-27 02:32N 34°39' E 033°01'0 0.0
2015-Mar-27 01:29N 34°39' E 033°01'0 0.0
2015-Mar-27 00:32N 34°39' E 033°01'0 0.0
2015-Mar-26 23:32N 34°39' E 033°01'0 0.0
2015-Mar-26 22:32N 34°39' E 033°01'0 0.0
2015-Mar-26 21:32N 34°39' E 033°01'0 0.0
2015-Mar-26 20:31N 34°39' E 033°01'0 0.0
2015-Mar-26 19:31N 34°39' E 033°01'0 0.0
2015-Mar-26 18:31N 34°39' E 033°01'0 0.0
2015-Mar-26 17:31N 34°39' E 033°01'0 0.0
2015-Mar-26 16:31N 34°39' E 033°01'0 0.0
2015-Mar-26 15:31N 34°39' E 033°01'0 0.0
2015-Mar-26 14:31N 34°39' E 033°01'0 0.0
2015-Mar-26 13:31N 34°39' E 033°01'0 0.0
2015-Mar-26 12:31N 34°39' E 033°01'0 0.0
2015-Mar-26 11:31N 34°39' E 033°01'0 0.0
2015-Mar-26 10:31N 34°39' E 033°01'0 0.0
2015-Mar-26 09:31N 34°39' E 033°01'0 0.0
2015-Mar-26 08:31N 34°39' E 033°01'0 0.0
2015-Mar-26 07:31N 34°39' E 033°01'0 0.0
2015-Mar-26 06:31N 34°39' E 033°01'0 0.0
2015-Mar-26 05:31N 34°39' E 033°01'0 0.0
2015-Mar-26 04:31N 34°39' E 033°01'0 0.0
2015-Mar-26 03:31N 34°39' E 033°01'0 0.0
2015-Mar-26 02:31N 34°39' E 033°01'0 0.0
2015-Mar-26 01:31N 34°39' E 033°01'0 0.0
2015-Mar-26 00:31N 34°39' E 033°01'0 0.0
2015-Mar-25 23:31N 34°39' E 033°01'0 0.0
2015-Mar-25 22:31N 34°39' E 033°01'0 0.0
2015-Mar-25 21:31N 34°39' E 033°01'0 0.0
2015-Mar-25 20:31N 34°39' E 033°01'0 0.0
2015-Mar-25 19:31N 34°39' E 033°01'0 0.0
2015-Mar-25 18:31N 34°39' E 033°01'0 0.0
2015-Mar-25 17:31N 34°39' E 033°01'0 0.3
2015-Mar-25 16:33N 34°39' E 033°01'7 7.4
2015-Mar-25 15:33N 34°32' E 032°60'1312.9
2015-Mar-25 14:33N 34°34' E 032°45'1313.1
2015-Mar-25 13:33N 34°38' E 032°29'  
2015-Mar-20 22:10N 34°40' E 032°24'610.4
2015-Mar-20 21:33N 34°38' E 032°31'1110.7
2015-Mar-20 20:34N 34°35' E 032°43'1111.4
2015-Mar-20 19:33N 34°32' E 032°56'9 9.0
2015-Mar-20 18:34N 34°39' E 033°02'1 1.2
2015-Mar-20 17:34N 34°39' E 033°01'0 0.0
2015-Mar-20 16:34N 34°39' E 033°01'0 0.0
2015-Mar-20 15:34N 34°39' E 033°01'0 0.0
2015-Mar-20 14:34N 34°39' E 033°01'0 0.0
2015-Mar-20 13:34N 34°39' E 033°01'0 0.0
2015-Mar-20 12:34N 34°39' E 033°01'0 0.0
2015-Mar-20 11:34N 34°39' E 033°01'0 0.0
2015-Mar-20 10:33N 34°39' E 033°01'0 0.0
2015-Mar-20 09:34N 34°39' E 033°01'0 0.0
2015-Mar-20 08:34N 34°39' E 033°01'0 0.0
2015-Mar-20 07:34N 34°39' E 033°01'0 0.0
2015-Mar-20 06:34N 34°39' E 033°01'0 0.0
2015-Mar-20 05:33N 34°39' E 033°01'0 0.0
2015-Mar-20 04:34N 34°39' E 033°01'0 0.0
2015-Mar-20 03:33N 34°39' E 033°01'0 0.0
2015-Mar-20 02:34N 34°39' E 033°01'0 0.0
2015-Mar-20 01:34N 34°39' E 033°01'0 0.0
2015-Mar-20 00:33N 34°39' E 033°01'0 0.0
2015-Mar-19 23:33N 34°39' E 033°01'0 0.0
2015-Mar-19 22:33N 34°39' E 033°01'0 0.0
2015-Mar-19 21:34N 34°39' E 033°01'0 0.0
2015-Mar-19 20:34N 34°39' E 033°01'0 0.0
2015-Mar-19 19:34N 34°39' E 033°01'0 0.0
2015-Mar-19 18:34N 34°39' E 033°01'0 0.0
2015-Mar-19 17:34N 34°39' E 033°01'0 0.0
2015-Mar-19 16:33N 34°39' E 033°01'0 0.0
2015-Mar-19 15:34N 34°39' E 033°01'0 0.0
2015-Mar-19 14:34N 34°39' E 033°01'0 0.0
2015-Mar-19 13:34N 34°39' E 033°01'0 0.0
2015-Mar-19 12:34N 34°39' E 033°01'0 0.0
2015-Mar-19 11:34N 34°39' E 033°01'0 0.0
2015-Mar-19 10:34N 34°39' E 033°01'0 0.0
2015-Mar-19 09:33N 34°39' E 033°01'0 0.0
2015-Mar-19 08:34N 34°39' E 033°01'0 0.0
2015-Mar-19 07:34N 34°39' E 033°01'0 0.0
2015-Mar-19 06:34N 34°39' E 033°01'0 0.0
2015-Mar-19 05:34N 34°39' E 033°01'0 0.0
2015-Mar-19 04:34N 34°39' E 033°01'0 0.0
2015-Mar-19 03:33N 34°39' E 033°01'0 0.0
2015-Mar-19 02:34N 34°39' E 033°01'0 0.0
2015-Mar-19 01:33N 34°39' E 033°01'0 0.0
2015-Mar-19 00:34N 34°39' E 033°01'0 0.0
2015-Mar-18 23:34N 34°39' E 033°01'0 0.0
2015-Mar-18 22:33N 34°39' E 033°01'0 0.0
2015-Mar-18 21:34N 34°39' E 033°01'0 0.0
2015-Mar-18 20:33N 34°39' E 033°01'0 0.0
2015-Mar-18 19:34N 34°39' E 033°01'0 0.0
2015-Mar-18 18:34N 34°39' E 033°01'0 0.0
2015-Mar-18 17:34N 34°39' E 033°01'0 0.0
2015-Mar-18 16:34N 34°39' E 033°01'0 0.0
2015-Mar-18 15:34N 34°39' E 033°01'0 0.0
2015-Mar-18 14:34N 34°39' E 033°01'0 0.0
2015-Mar-18 13:34N 34°39' E 033°01'0 0.0
2015-Mar-18 12:34N 34°39' E 033°01'0 0.0
2015-Mar-18 11:33N 34°39' E 033°01'0 0.0
2015-Mar-18 10:33N 34°39' E 033°01'0 0.0
2015-Mar-18 09:33N 34°39' E 033°01'0 0.0
2015-Mar-18 08:34N 34°39' E 033°01'0 0.0
2015-Mar-18 07:34N 34°39' E 033°01'0 0.0
2015-Mar-18 06:34N 34°39' E 033°01'0 0.0
2015-Mar-18 05:34N 34°39' E 033°01'0 0.0
2015-Mar-18 04:34N 34°39' E 033°01'0 0.0
2015-Mar-18 03:34N 34°39' E 033°01'0 0.0
2015-Mar-18 02:34N 34°39' E 033°01'0 0.0
2015-Mar-18 01:33N 34°39' E 033°01'0 0.0
2015-Mar-18 00:34N 34°39' E 033°01'  

Dump ship's entire track history